createdAt,value
2022-08-22T00:01:32.691Z,95683.38
2022-08-22T00:02:45.053Z,95665.50
2022-08-22T00:02:47.882Z,95665.66
2022-08-22T00:02:59.185Z,95696.38
2022-08-22T00:03:10.107Z,95705.50
2022-08-22T00:03:59.246Z,95681.28
2022-08-22T00:06:31.757Z,95683.16
2022-08-22T00:09:42.771Z,95686.78
2022-08-22T00:12:18.695Z,95694.28
2022-08-22T00:14:58.290Z,95700.53
2022-08-22T00:17:53.151Z,95688.69
2022-08-22T00:20:30.311Z,95695.34
2022-08-22T00:23:25.240Z,95690.38
2022-08-22T00:26:03.383Z,95685.50
2022-08-22T00:29:01.322Z,95680.84
2022-08-22T00:31:46.088Z,95672.97
2022-08-22T00:34:17.205Z,95682.00
2022-08-22T00:36:51.349Z,95682.75
2022-08-22T00:39:28.776Z,95678.44
2022-08-22T00:42:08.811Z,95669.47
2022-08-22T00:44:47.359Z,95678.97
2022-08-22T00:47:36.249Z,95677.78
2022-08-22T00:50:50.990Z,95678.66
2022-08-22T00:53:26.691Z,95675.41
2022-08-22T00:56:28.383Z,95675.56
2022-08-22T00:59:23.874Z,95679.22
2022-08-22T01:02:11.078Z,95671.47
2022-08-22T01:04:52.196Z,95669.16
2022-08-22T01:08:01.160Z,95670.94
2022-08-22T01:10:58.771Z,95665.25
2022-08-22T01:13:39.360Z,95675.88
2022-08-22T01:16:35.163Z,95665.13
2022-08-22T01:19:29.626Z,95673.41
2022-08-22T01:22:20.319Z,95682.34
2022-08-22T01:25:22.575Z,95682.47
2022-08-22T01:28:23.999Z,95672.69
2022-08-22T01:31:22.512Z,95669.59
2022-08-22T01:34:26.967Z,95671.06
2022-08-22T01:37:21.116Z,95670.97
2022-08-22T01:40:04.580Z,95666.50
2022-08-22T01:42:34.597Z,95665.56
2022-08-22T01:45:36.568Z,95670.09
2022-08-22T01:48:05.778Z,95669.97
2022-08-22T01:50:36.736Z,95674.75
2022-08-22T01:53:11.558Z,95669.50
2022-08-22T01:56:02.481Z,95668.19
2022-08-22T01:58:33.283Z,95667.88
2022-08-22T02:01:02.951Z,95664.19
2022-08-22T02:03:34.852Z,95664.94
2022-08-22T02:06:16.778Z,95659.78
2022-08-22T02:09:03.290Z,95661.56
2022-08-22T02:11:45.002Z,95658.81
2022-08-22T02:14:23.672Z,95655.06
2022-08-22T02:17:17.330Z,95657.88
2022-08-22T02:19:59.820Z,95653.53
2022-08-22T02:22:44.373Z,95652.25
2022-08-22T02:25:25.751Z,95654.16
2022-08-22T02:28:00.342Z,95659.41
2022-08-22T02:30:50.342Z,95661.78
2022-08-22T02:33:49.234Z,95661.22
2022-08-22T02:36:22.585Z,95655.81
2022-08-22T02:39:13.541Z,95653.22
2022-08-22T02:41:48.971Z,95647.72
2022-08-22T02:44:36.374Z,95646.69
2022-08-22T02:47:11.920Z,95647.06
2022-08-22T02:49:59.987Z,95641.78
2022-08-22T02:52:34.828Z,95640.00
2022-08-22T02:55:07.814Z,95634.66
2022-08-22T02:57:42.148Z,95632.41
2022-08-22T03:00:32.588Z,95624.72
2022-08-22T03:02:59.751Z,95632.69
2022-08-22T03:05:37.293Z,95630.69
2022-08-22T03:08:25.166Z,95638.13
2022-08-22T03:11:18.661Z,95628.66
2022-08-22T03:14:18.848Z,95626.19
2022-08-22T03:17:05.846Z,95634.38
2022-08-22T03:19:56.777Z,95636.78
2022-08-22T03:22:43.639Z,95630.66
2022-08-22T03:25:26.485Z,95634.75
2022-08-22T03:28:04.009Z,95630.00
2022-08-22T03:30:40.584Z,95631.69
2022-08-22T03:33:22.729Z,95635.31
2022-08-22T03:35:49.866Z,95627.81
2022-08-22T03:38:34.685Z,95628.09
2022-08-22T03:41:43.172Z,95630.91
2022-08-22T03:44:45.274Z,95626.59
2022-08-22T03:47:28.613Z,95634.09
2022-08-22T03:50:33.047Z,95623.38
2022-08-22T03:53:33.895Z,95626.19
2022-08-22T03:56:22.221Z,95635.53
2022-08-22T03:59:10.125Z,95641.91
2022-08-22T04:01:46.165Z,95642.00
2022-08-22T04:04:31.742Z,95641.91
2022-08-22T04:07:36.022Z,95649.19
2022-08-22T04:10:27.128Z,95648.31
2022-08-22T04:13:29.923Z,95641.63
2022-08-22T04:16:08.571Z,95644.75
2022-08-22T04:18:43.948Z,95643.53
2022-08-22T04:21:14.809Z,95647.56
2022-08-22T04:24:26.637Z,95644.94
2022-08-22T04:27:01.777Z,95645.72
2022-08-22T04:29:38.753Z,95650.91
2022-08-22T04:32:20.055Z,95654.16
2022-08-22T04:35:06.978Z,95647.81
2022-08-22T04:37:46.999Z,95649.56
2022-08-22T04:40:34.183Z,95646.88
2022-08-22T04:43:13.126Z,95657.75
2022-08-22T04:45:42.885Z,95657.28
2022-08-22T04:48:20.551Z,95649.28
2022-08-22T04:50:56.282Z,95653.63
2022-08-22T04:53:47.817Z,95659.13
2022-08-22T04:56:33.183Z,95649.28
2022-08-22T04:59:20.065Z,95641.88
2022-08-22T05:01:55.239Z,95648.75
2022-08-22T05:04:27.903Z,95647.72
2022-08-22T05:07:18.141Z,95649.66
2022-08-22T05:10:11.630Z,95651.81
2022-08-22T05:13:05.106Z,95652.09
2022-08-22T05:15:38.239Z,95647.63
2022-08-22T05:18:09.393Z,95651.38
2022-08-22T05:20:39.600Z,95657.09
2022-08-22T05:23:17.814Z,95660.94
2022-08-22T05:25:46.964Z,95655.13
2022-08-22T05:28:28.723Z,95662.75
2022-08-22T05:30:56.220Z,95657.66
2022-08-22T05:33:29.868Z,95663.78
2022-08-22T05:36:30.784Z,95665.09
2022-08-22T05:39:03.317Z,95666.50
2022-08-22T05:41:36.112Z,95673.44
2022-08-22T05:44:04.220Z,95668.25
2022-08-22T05:46:44.489Z,95667.50
2022-08-22T05:49:34.361Z,95673.63
2022-08-22T05:52:36.990Z,95672.75
2022-08-22T05:55:06.953Z,95675.97
2022-08-22T05:57:37.979Z,95674.63
2022-08-22T06:00:12.821Z,95671.84
2022-08-22T06:02:58.019Z,95674.28
2022-08-22T06:05:31.317Z,95673.91
2022-08-22T06:08:07.587Z,95675.06
2022-08-22T06:10:40.037Z,95675.97
2022-08-22T06:13:11.545Z,95678.41
2022-08-22T06:15:52.702Z,95675.69
2022-08-22T06:18:27.205Z,95666.19
2022-08-22T06:20:55.501Z,95669.06
2022-08-22T06:23:41.647Z,95674.09
2022-08-22T06:26:21.036Z,95671.09
2022-08-22T06:28:55.333Z,95676.78
2022-08-22T06:31:35.734Z,95679.00
2022-08-22T06:34:13.171Z,95683.38
2022-08-22T06:36:43.602Z,95674.22
2022-08-22T06:39:18.535Z,95682.56
2022-08-22T06:41:53.685Z,95679.06
2022-08-22T06:44:23.917Z,95684.78
2022-08-22T06:46:54.422Z,95682.47
2022-08-22T06:49:23.262Z,95685.81
2022-08-22T06:51:50.711Z,95687.59
2022-08-22T06:54:22.002Z,95685.34
2022-08-22T06:56:50.547Z,95689.81
2022-08-22T06:59:26.303Z,95686.25
2022-08-22T07:02:03.553Z,95699.13
2022-08-22T07:04:31.142Z,95704.22
2022-08-22T07:07:00.736Z,95698.06
2022-08-22T07:09:40.278Z,95697.75
2022-08-22T07:12:19.413Z,95688.09
2022-08-22T07:14:50.537Z,95702.78
2022-08-22T07:17:25.415Z,95685.72
2022-08-22T07:19:59.556Z,95689.41
2022-08-22T07:22:33.096Z,95692.25
2022-08-22T07:25:15.573Z,95685.94
2022-08-22T07:28:07.671Z,95690.34
2022-08-22T07:30:52.754Z,95703.13
2022-08-22T07:33:35.838Z,95698.16
2022-08-22T07:36:17.624Z,95698.47
2022-08-22T07:38:55.886Z,95699.53
2022-08-22T07:41:33.975Z,95703.88
2022-08-22T07:44:21.459Z,95706.63
2022-08-22T07:47:04.657Z,95710.28
2022-08-22T07:49:36.855Z,95710.88
2022-08-22T07:52:13.679Z,95714.31
2022-08-22T07:54:47.075Z,95706.34
2022-08-22T07:57:24.668Z,95704.88
2022-08-22T07:59:54.910Z,95710.44
2022-08-22T08:02:24.240Z,95712.75
2022-08-22T08:04:55.050Z,95715.47
2022-08-22T08:07:25.865Z,95718.44
2022-08-22T08:10:12.472Z,95707.09
2022-08-22T08:12:56.128Z,95716.44
2022-08-22T08:15:32.558Z,95716.13
2022-08-22T08:18:05.357Z,95712.66
2022-08-22T08:20:35.935Z,95714.38
2022-08-22T08:25:32.216Z,95712.03
2022-08-22T08:28:18.933Z,95717.81
2022-08-22T08:30:57.003Z,95708.91
2022-08-22T08:33:28.103Z,95716.47
2022-08-22T08:36:02.540Z,95718.41
2022-08-22T08:38:44.197Z,95719.00
2022-08-22T08:41:38.683Z,95707.69
2022-08-22T08:44:35.695Z,95713.88
2022-08-22T08:47:27.466Z,95711.00
2022-08-22T08:49:54.717Z,95712.41
2022-08-22T08:52:42.517Z,95706.84
2022-08-22T08:55:27.999Z,95707.94
2022-08-22T08:58:07.103Z,95708.69
2022-08-22T09:00:51.163Z,95703.22
2022-08-22T09:03:47.619Z,95700.34
2022-08-22T09:06:59.234Z,95701.66
2022-08-22T09:09:46.835Z,95699.97
2022-08-22T09:13:11.475Z,95703.41
2022-08-22T09:16:15.479Z,95701.91
2022-08-22T09:19:14.160Z,95697.28
2022-08-22T09:22:14.599Z,95696.00
2022-08-22T09:24:51.764Z,95690.13
2022-08-22T09:27:34.454Z,95689.19
2022-08-22T09:30:07.621Z,95691.84
2022-08-22T09:32:44.015Z,95691.19
2022-08-22T09:35:43.956Z,95695.22
2022-08-22T09:38:30.808Z,95695.56
2022-08-22T09:41:27.084Z,95689.72
2022-08-22T09:44:34.885Z,95687.75
2022-08-22T09:47:17.631Z,95688.28
2022-08-22T09:50:12.334Z,95696.84
2022-08-22T09:53:13.897Z,95692.78
2022-08-22T09:55:59.566Z,95690.69
2022-08-22T09:58:40.756Z,95696.25
2022-08-22T10:01:32.766Z,95685.63
2022-08-22T10:04:19.577Z,95694.06
2022-08-22T10:07:11.728Z,95692.13
2022-08-22T10:09:57.466Z,95698.13
2022-08-22T10:12:48.724Z,95695.19
2022-08-22T10:15:39.412Z,95684.59
2022-08-22T10:18:29.260Z,95689.47
2022-08-22T10:21:37.531Z,95687.53
2022-08-22T10:24:04.087Z,95690.81
2022-08-22T10:26:45.791Z,95685.06
2022-08-22T10:29:37.638Z,95686.28
2022-08-22T10:32:34.279Z,95687.94
2022-08-22T10:35:20.023Z,95685.47
2022-08-22T10:38:17.662Z,95682.91
2022-08-22T10:41:09.411Z,95680.38
2022-08-22T10:43:48.862Z,95673.22
2022-08-22T10:46:33.178Z,95679.56
2022-08-22T10:49:10.503Z,95668.22
2022-08-22T10:51:43.645Z,95666.38
2022-08-22T10:54:29.574Z,95669.56
2022-08-22T10:57:20.581Z,95662.44
2022-08-22T11:00:06.333Z,95675.59
2022-08-22T11:02:38.366Z,95666.63
2022-08-22T11:05:14.610Z,95665.94
2022-08-22T11:07:41.514Z,95662.81
2022-08-22T11:10:23.054Z,95655.31
2022-08-22T11:13:09.122Z,95650.09
2022-08-22T11:16:05.047Z,95656.25
2022-08-22T11:19:15.091Z,95660.47
2022-08-22T11:21:54.350Z,95654.47
2022-08-22T11:24:34.677Z,95649.72
2022-08-22T11:27:35.187Z,95644.88
2022-08-22T11:30:18.706Z,95650.03
2022-08-22T11:32:49.669Z,95653.88
2022-08-22T11:35:24.171Z,95638.16
2022-08-22T11:38:05.006Z,95637.72
2022-08-22T11:41:00.547Z,95639.25
2022-08-22T11:43:54.816Z,95643.88
2022-08-22T11:46:30.940Z,95641.44
2022-08-22T11:49:25.622Z,95643.81
2022-08-22T11:51:53.571Z,95631.16
2022-08-22T11:54:44.739Z,95627.72
2022-08-22T11:57:19.335Z,95632.06
2022-08-22T11:59:45.843Z,95629.16
2022-08-22T12:02:19.444Z,95634.66
2022-08-22T12:04:52.983Z,95631.16
2022-08-22T12:07:30.176Z,95625.84
2022-08-22T12:10:13.491Z,95628.94
2022-08-22T12:13:00.952Z,95629.28
2022-08-22T12:15:33.304Z,95622.97
2022-08-22T12:18:21.838Z,95616.28
2022-08-22T12:21:26.609Z,95624.13
2022-08-22T12:24:19.367Z,95616.84
2022-08-22T12:27:09.260Z,95616.63
2022-08-22T12:29:45.007Z,95609.19
2022-08-22T12:32:27.511Z,95614.09
2022-08-22T12:35:14.050Z,95612.56
2022-08-22T12:37:52.736Z,95604.53
2022-08-22T12:40:40.259Z,95602.47
2022-08-22T12:43:25.546Z,95603.09
2022-08-22T12:46:16.398Z,95596.41
2022-08-22T12:49:07.827Z,95596.81
2022-08-22T12:51:58.066Z,95596.94
2022-08-22T12:54:52.104Z,95596.47
2022-08-22T12:57:39.262Z,95595.22
2022-08-22T13:00:40.376Z,95598.53
2022-08-22T13:03:12.775Z,95586.31
2022-08-22T13:05:43.856Z,95590.41
2022-08-22T13:08:17.516Z,95592.06
2022-08-22T13:10:46.397Z,95584.44
2022-08-22T13:13:36.391Z,95587.16
2022-08-22T13:16:13.548Z,95585.84
2022-08-22T13:18:47.705Z,95580.44
2022-08-22T13:21:31.511Z,95573.13
2022-08-22T13:24:10.642Z,95579.38
2022-08-22T13:26:58.034Z,95575.91
2022-08-22T13:29:43.022Z,95578.47
2022-08-22T13:32:23.496Z,95579.00
2022-08-22T13:34:56.283Z,95574.59
2022-08-22T13:37:30.095Z,95567.97
2022-08-22T13:40:01.899Z,95569.59
2022-08-22T13:42:31.838Z,95575.94
2022-08-22T13:45:05.159Z,95579.66
2022-08-22T13:47:35.903Z,95570.25
2022-08-22T13:50:14.667Z,95570.44
2022-08-22T13:53:14.494Z,95572.72
2022-08-22T13:55:55.375Z,95570.25
2022-08-22T13:58:40.652Z,95564.38
2022-08-22T14:01:28.681Z,95565.41
2022-08-22T14:04:00.546Z,95563.41
2022-08-22T14:06:37.797Z,95564.00
2022-08-22T14:09:30.682Z,95560.16
2022-08-22T14:12:22.814Z,95557.88
2022-08-22T14:14:56.833Z,95562.69
2022-08-22T14:17:32.624Z,95553.97
2022-08-22T14:20:06.883Z,95557.78
2022-08-22T14:22:40.655Z,95552.03
2022-08-22T14:25:16.924Z,95555.81
2022-08-22T14:27:57.641Z,95549.13
2022-08-22T14:30:32.850Z,95550.47
2022-08-22T14:33:34.195Z,95554.13
2022-08-22T14:36:11.470Z,95547.75
2022-08-22T14:38:48.523Z,95553.81
2022-08-22T14:41:52.783Z,95544.13
2022-08-22T14:44:26.754Z,95551.66
2022-08-22T14:47:04.180Z,95542.00
2022-08-22T14:49:57.679Z,95547.53
2022-08-22T14:52:35.775Z,95544.16
2022-08-22T14:55:20.785Z,95545.50
2022-08-22T14:57:56.167Z,95545.19
2022-08-22T15:00:31.289Z,95550.84
2022-08-22T15:03:25.213Z,95540.75
2022-08-22T15:05:54.545Z,95545.06
2022-08-22T15:08:32.316Z,95544.41
2022-08-22T15:11:32.096Z,95536.69
2022-08-22T15:14:08.310Z,95529.44
2022-08-22T15:16:50.419Z,95541.50
2022-08-22T15:19:34.607Z,95537.41
2022-08-22T15:22:22.146Z,95532.41
2022-08-22T15:24:58.017Z,95531.13
2022-08-22T15:27:26.536Z,95531.19
2022-08-22T15:29:58.534Z,95527.88
2022-08-22T15:32:28.883Z,95532.69
2022-08-22T15:35:15.268Z,95531.44
2022-08-22T15:38:00.507Z,95518.22
2022-08-22T15:40:33.481Z,95524.75
2022-08-22T15:43:13.102Z,95518.75
2022-08-22T15:45:42.132Z,95514.03
2022-08-22T15:48:31.066Z,95517.91
2022-08-22T15:51:02.410Z,95517.91
2022-08-22T15:53:45.365Z,95517.06
2022-08-22T15:56:11.906Z,95519.09
2022-08-22T15:58:48.877Z,95516.06
2022-08-22T16:01:25.586Z,95511.66
2022-08-22T16:03:58.630Z,95517.97
2022-08-22T16:06:49.061Z,95526.53
2022-08-22T16:09:40.631Z,95522.34
2022-08-22T16:12:25.119Z,95522.56
2022-08-22T16:14:53.319Z,95524.06
2022-08-22T16:17:26.104Z,95524.28
2022-08-22T16:20:07.987Z,95524.38
2022-08-22T16:22:58.380Z,95525.56
2022-08-22T16:26:05.851Z,95517.16
2022-08-22T16:28:58.284Z,95518.84
2022-08-22T16:31:43.919Z,95512.50
2022-08-22T16:34:16.559Z,95519.75
2022-08-22T16:37:11.140Z,95519.47
2022-08-22T16:39:48.379Z,95518.47
2022-08-22T16:42:15.615Z,95511.94
2022-08-22T16:44:45.003Z,95511.13
2022-08-22T16:47:11.531Z,95512.94
2022-08-22T16:49:56.634Z,95516.94
2022-08-22T16:52:26.313Z,95523.00
2022-08-22T16:55:25.812Z,95523.13
2022-08-22T16:58:35.818Z,95526.25
2022-08-22T17:01:15.709Z,95523.13
2022-08-22T17:03:58.618Z,95524.63
2022-08-22T17:06:45.232Z,95520.84
2022-08-22T17:09:30.569Z,95525.38
2022-08-22T17:12:10.881Z,95532.84
2022-08-22T17:14:59.127Z,95522.81
2022-08-22T17:17:50.526Z,95533.00
2022-08-22T17:20:40.582Z,95534.31
2022-08-22T17:23:52.314Z,95540.38
2022-08-22T17:26:19.797Z,95544.09
2022-08-22T17:29:02.964Z,95537.06
2022-08-22T17:31:41.602Z,95542.00
2022-08-22T17:34:14.185Z,95544.09
2022-08-22T17:37:11.000Z,95548.38
2022-08-22T17:39:42.611Z,95543.50
2022-08-22T17:42:24.277Z,95552.56
2022-08-22T17:45:02.157Z,95549.59
2022-08-22T17:47:39.103Z,95553.94
2022-08-22T17:50:44.262Z,95556.41
2022-08-22T17:53:28.748Z,95554.72
2022-08-22T17:56:05.238Z,95558.50
2022-08-22T17:58:44.058Z,95563.56
2022-08-22T18:01:16.603Z,95564.34
2022-08-22T18:03:51.979Z,95556.59
2022-08-22T18:06:28.430Z,95568.28
2022-08-22T18:09:15.436Z,95573.75
2022-08-22T18:11:55.079Z,95571.59
2022-08-22T18:14:30.426Z,95579.63
2022-08-22T18:17:00.130Z,95578.69
2022-08-22T18:19:45.367Z,95575.53
2022-08-22T18:22:25.954Z,95579.31
2022-08-22T18:25:03.353Z,95575.38
2022-08-22T18:27:43.572Z,95590.31
2022-08-22T18:30:28.259Z,95596.69
2022-08-22T18:33:31.657Z,95587.03
2022-08-22T18:36:07.714Z,95590.78
2022-08-22T18:38:56.185Z,95595.94
2022-08-22T18:41:32.221Z,95594.91
2022-08-22T18:43:59.928Z,95596.00
2022-08-22T18:46:38.763Z,95600.81
2022-08-22T18:49:20.603Z,95600.75
2022-08-22T18:52:25.308Z,95606.09
2022-08-22T18:55:36.624Z,95609.25
2022-08-22T18:58:22.928Z,95609.78
2022-08-22T19:01:01.636Z,95608.72
2022-08-22T19:03:50.132Z,95612.06
2022-08-22T19:06:43.007Z,95615.28
2022-08-22T19:09:09.592Z,95619.78
2022-08-22T19:11:46.133Z,95617.94
2022-08-22T19:14:32.599Z,95616.16
2022-08-22T19:17:15.030Z,95614.31
2022-08-22T19:20:22.068Z,95623.84
2022-08-22T19:22:50.918Z,95630.13
2022-08-22T19:25:26.295Z,95633.34
2022-08-22T19:28:11.347Z,95636.31
2022-08-22T19:30:50.044Z,95637.28
2022-08-22T19:33:27.676Z,95632.38
2022-08-22T19:36:11.643Z,95634.19
2022-08-22T19:38:59.879Z,95638.22
2022-08-22T19:41:39.215Z,95640.13
2022-08-22T19:44:33.633Z,95638.97
2022-08-22T19:47:37.804Z,95628.13
2022-08-22T19:50:33.174Z,95639.53
2022-08-22T19:53:21.340Z,95643.00
2022-08-22T19:56:15.986Z,95640.34
2022-08-22T19:58:58.599Z,95645.06
2022-08-22T20:02:07.240Z,95646.59
2022-08-22T20:05:00.600Z,95646.47
2022-08-22T20:07:45.475Z,95639.03
2022-08-22T20:10:25.713Z,95637.56
2022-08-22T20:13:07.486Z,95638.06
2022-08-22T20:16:03.194Z,95638.53
2022-08-22T20:19:05.503Z,95636.09
2022-08-22T20:21:53.673Z,95638.22
2022-08-22T20:24:58.299Z,95647.22
2022-08-22T20:27:27.754Z,95647.28
2022-08-22T20:30:04.438Z,95652.63
2022-08-22T20:32:37.622Z,95663.28
2022-08-22T20:35:05.605Z,95651.09
2022-08-22T20:38:05.228Z,95660.03
2022-08-22T20:40:53.537Z,95661.38
2022-08-22T20:43:32.782Z,95657.38
2022-08-22T20:46:32.700Z,95656.00
2022-08-22T20:49:01.074Z,95648.72
2022-08-22T20:51:30.090Z,95654.88
2022-08-22T20:54:10.018Z,95655.94
2022-08-22T20:56:53.273Z,95657.94
2022-08-22T20:59:39.302Z,95658.28
2022-08-22T21:02:20.424Z,95648.69
2022-08-22T21:04:46.805Z,95664.78
2022-08-22T21:07:24.511Z,95660.22
2022-08-22T21:10:23.086Z,95661.47
2022-08-22T21:13:42.170Z,95651.34
2022-08-22T21:16:18.378Z,95645.53
2022-08-22T21:18:53.068Z,95649.50
2022-08-22T21:21:36.267Z,95652.13
2022-08-22T21:24:08.132Z,95656.91
2022-08-22T21:26:47.600Z,95658.91
2022-08-22T21:29:14.121Z,95658.75
2022-08-22T21:31:53.282Z,95672.22
2022-08-22T21:34:29.454Z,95671.22
2022-08-22T21:37:02.217Z,95667.69
2022-08-22T21:39:34.558Z,95677.16
2022-08-22T21:42:01.089Z,95665.03
2022-08-22T21:44:30.555Z,95669.13
2022-08-22T21:47:14.654Z,95671.38
2022-08-22T21:50:07.096Z,95664.84
2022-08-22T21:52:37.917Z,95671.13
2022-08-22T21:55:26.366Z,95665.81
2022-08-22T21:58:35.478Z,95670.22
2022-08-22T22:01:25.049Z,95673.41
2022-08-22T22:03:54.055Z,95662.50
2022-08-22T22:06:20.738Z,95666.06
2022-08-22T22:08:47.322Z,95669.44
2022-08-22T22:11:15.537Z,95679.41
2022-08-22T22:13:42.422Z,95677.06
2022-08-22T22:16:12.046Z,95676.44
2022-08-22T22:18:39.630Z,95684.41
2022-08-22T22:21:06.393Z,95686.25
2022-08-22T22:23:33.252Z,95683.97
2022-08-22T22:26:02.397Z,95689.47
2022-08-22T22:28:36.588Z,95688.69
2022-08-22T22:31:03.672Z,95694.91
2022-08-22T22:33:34.204Z,95691.06
2022-08-22T22:36:08.008Z,95694.72
2022-08-22T22:38:34.647Z,95689.03
2022-08-22T22:41:01.225Z,95690.56
2022-08-22T22:43:27.839Z,95696.03
2022-08-22T22:45:54.629Z,95691.41
2022-08-22T22:48:24.504Z,95692.94
2022-08-22T22:50:52.733Z,95697.78
2022-08-22T22:53:21.307Z,95701.94
2022-08-22T22:56:00.067Z,95696.19
2022-08-22T22:58:28.606Z,95691.66
2022-08-22T23:00:55.820Z,95685.88
2022-08-22T23:03:22.995Z,95682.06
2022-08-22T23:05:49.624Z,95692.28
2022-08-22T23:08:16.212Z,95690.72
2022-08-22T23:10:42.841Z,95686.25
2022-08-22T23:13:09.491Z,95688.31
2022-08-22T23:15:37.048Z,95692.03
2022-08-22T23:18:03.660Z,95694.31
2022-08-22T23:20:30.272Z,95697.72
2022-08-22T23:22:56.941Z,95700.59
2022-08-22T23:25:23.654Z,95702.72
2022-08-22T23:27:52.606Z,95709.00
2022-08-22T23:30:20.028Z,95709.59
2022-08-22T23:32:46.600Z,95708.31
2022-08-22T23:35:13.433Z,95717.97
2022-08-22T23:37:39.991Z,95714.59
2022-08-22T23:40:10.512Z,95724.69
2022-08-22T23:42:37.168Z,95723.97
2022-08-22T23:45:04.363Z,95720.63
2022-08-22T23:47:30.910Z,95718.56
2022-08-22T23:49:57.484Z,95719.16
2022-08-22T23:52:24.648Z,95712.03
2022-08-22T23:54:54.296Z,95717.00
2022-08-22T23:57:26.346Z,95716.38
2022-08-22T23:59:57.692Z,95723.06
